Aeroporto :
LOGIN :

Iscrizione | Disclaimer

   EN    FR    IT 

 










Sommario :    VFR   VFR Marginale   IFR   IFR Intensivo   IFR Molto Intensivo
Visibilità : 
Base nubi : 
>= 8 km
>= 3000ft
5 / 8 km
1000 / 3000 ft
1500m / 5 km
500 / 1000 ft
800 / 1500m
200 / 500 ft
< 800m
< 200 ft
Simboli :   Temporali  Nebbia  Neve Forte  Precipitazioni Forti  Vento > 20 kt
SIGMETs :   Varie  Temporali  Ghiacco  Turbolenza  Onda orograficha  Ceneri Vulcaniche






- Altitudine del aeroporto : 257 ft
- Codice IATA : MAN


EGCC - Manchester

ULTIMO METAR :
  • 031320Z AUTO 21012KT 9999 SCT021 OVC028 16/13 Q1010 NOSIG

METARs OBSOLETI :
  • 031250Z AUTO 21012KT 170V230 9999 -RA SCT021/// BKN027/// OVC032/// //////TCU 16/13 Q1010 TEMPO RA
  • 031220Z AUTO 21013KT 170V240 9999 SCT019/// BKN024/// OVC028/// //////TCU 15/13 Q1010
  • 031150Z AUTO 21010KT 170V230 7000 -RA SCT017/// BKN026/// BKN032/// //////TCU 15/13 Q1011 TEMPO RA
  • 031120Z AUTO 21011KT 9999 -RA FEW018/// SCT032/// BKN041/// //////TCU 15/13 Q1011 TEMPO RA
  • 031050Z AUTO 21014G27KT 170V230 9999 FEW018 BKN048 15/12 Q1010 TEMPO RA

TAF TAF EGCC
Valido dal 03 a 12 ore il 04 a 18 ore UTC


031100Z 0312/0418 23015G25KT 9999 BKN030
TEMPO 0312/0412 7000 RA
TEMPO 0312/0401 BKN012
PROB30
TEMPO 0312/0319 24025G35KT 4000 +RA
BECMG 0316/0319 24012KT
BECMG 0401/0404 BKN010
PROB30
TEMPO 0404/0409 3000 RADZ BKN005
BECMG 0410/0413 BKN020
ATIS : +44 161 499 2324



MetMap, La meteo Aeronautica in un colpo d'occhio ! - Copyright ORBIFLY Dicembre 2007 - Disclaimer

ORBIFLY MET'MAP TEAM :

Programmazione e sviluppo : Alexandra Zaïnal
Concezione : Baudouin d'Aumeries
Aiuto per la programmazione : Marc-Olivier Méhu
Supporto tecnico e logistico : Manuel Goepfert
Aiuto per la traduzione : Arnaldo La Scala

Contatto : metmap@orbifly.com




FONTI E CREDITI :

   NOAA